METAR Data
IDs: Format: Raw Decoded Include TAF

Data at: 1725 UTC 21 Sep 2018

KHRX 211715Z AUTO 04022G27KT 10SM 22/17 A3021 RMK AO2 T02160166
KHRX 211655Z AUTO 04018G27KT 10SM 22/18 A3021 RMK AO2 T02190175
KHRX 211635Z AUTO 04018G25KT 10SM 21/18 A3020 RMK AO2 T02140175
KHRX 211615Z AUTO 05017G23KT 10SM 21/18 A3019 RMK AO2 T02140181
KHRX 211555Z AUTO 04014G18KT 10SM 20/18 A3017 RMK AO2 P0001 T01960181
KHRX 211535Z AUTO 03016G19KT 10SM 19/18 A3016 RMK AO2 P0001 T01910180
KHRX 211515Z AUTO 02013G23KT 10SM 20/19 A3015 RMK AO2 T02000191
KHRX 211455Z AUTO 03021G26KT 7SM -RA 20/19 A3015 RMK AO2 T02020193
KHRX 211435Z AUTO 03018G26KT 1 3/4SM +RA 20/19 A3014 RMK AO2 T02020188
KHRX 211415Z AUTO 03013G23KT 5SM BR 20/19 A3013 RMK AO2 T02020192
KHRX 211355Z AUTO 02015G18KT 7SM 20/19 A3013 RMK AO2 T01960190
KHRX 211335Z AUTO 01010KT 7SM 19/19 A3010 RMK AO2 T01910185
KHRX 211315Z AUTO 02008KT 7SM 19/18 A3009 RMK AO2 LTG DSNT S T01880181
KHRX 211255Z AUTO 01007KT 5SM BR 19/18 A3009 RMK AO2 T01900184
KHRX 211235Z AUTO 02008KT 7SM 19/18 A3008 RMK AO2 T01910184
KHRX 211215Z AUTO 02005KT 10SM 19/18 A3007 RMK AO2 T01900182
KHRX 211155Z AUTO 01006KT 7SM 19/18 A3007 RMK AO2 T01900181 10200 20185
KHRX 211135Z AUTO 02005KT 7SM 19/18 A3006 RMK AO2 T01880178
KHRX 211115Z AUTO 02006KT 10SM 19/18 A3006 RMK AO2 T01880177
KHRX 211055Z AUTO 03006KT 10SM 19/18 A3005 RMK AO2 T01860176
KHRX 211035Z AUTO 01004KT 10SM 19/18 A3004 RMK AO2 T01850176
KHRX 211015Z AUTO 35007KT 10SM 19/18 A3004 RMK AO2 T01850175
KHRX 210955Z AUTO 35005KT 10SM 19/18 A3003 RMK AO2 T01870177
KHRX 210935Z AUTO 35004KT 10SM 19/18 A3003 RMK AO2 T01880180
KHRX 210915Z AUTO 00000KT 10SM 19/18 A3002 RMK AO2 T01900181
KHRX 210855Z AUTO 02004KT 10SM 19/18 A3002 RMK AO2 T01900181
KHRX 210835Z AUTO 36004KT 10SM 19/18 A3002 RMK AO2 T01880180
KHRX 210815Z AUTO 34004KT 10SM 19/18 A3002 RMK AO2 T01900181
KHRX 210755Z AUTO 32006KT 10SM 20/19 A3001 RMK AO2 LTG DSNT SE T01960186
KHRX 210735Z AUTO 30003KT 10SM 20/19 A3001 RMK AO2 T02000190
KHRX 210715Z AUTO 00000KT 10SM 20/19 A3000 RMK AO2 T01980190
KHRX 210655Z AUTO 00000KT 10SM 20/19 A2999 RMK AO2 LTG DSNT E T01970189
KHRX 210635Z AUTO 12005KT 10SM 20/19 A2999 RMK AO2 T01950187
KHRX 210615Z AUTO 10004KT 10SM 20/19 A2999 RMK AO2 T01950186
KHRX 210555Z AUTO 10005KT 10SM 20/19 A3000 RMK AO2 T01960188 10270 20193 403140184
KHRX 210535Z AUTO 04006KT 10SM 20/19 A2999 RMK AO2 T01950188
KHRX 210515Z AUTO 01003KT 10SM 20/19 A3000 RMK AO2 LTG DSNT SE T01990191
KHRX 210455Z AUTO 28004KT 10SM 20/19 A3000 RMK AO2 T01970191
KHRX 210435Z AUTO 00000KT 10SM -DZ SCT009 OVC032 20/19 A2999 RMK AO2 T01950188
KHRX 210415Z AUTO 30005KT 10SM -DZ SCT005 BKN070 OVC110 20/19 A3000 RMK AO2 T01970191
KHRX 210355Z AUTO 12007KT 10SM -DZ SCT095 OVC120 20/19 A2998 RMK AO2 T01950190
KHRX 210335Z AUTO 07006KT 10SM DZ SCT065 SCT085 OVC120 20/19 A2996 RMK AO2 T01950190
KHRX 210315Z AUTO 04005KT 10SM RA SCT075 OVC100 20/19 A2996 RMK AO2 T01950188
KHRX 210255Z AUTO 36007KT 10SM RA SCT045 SCT060 OVC110 19/19 A2996 RMK AO2 T01940187
KHRX 210235Z AUTO 35008KT 10SM -RA SCT035 BKN045 OVC075 20/19 A2996 RMK AO2 LTG DSNT E T01950187
KHRX 210215Z AUTO 34006KT 7SM RA SCT025 BKN033 OVC039 20/19 A2998 RMK AO2 T01950187
KHRX 210155Z AUTO 32005KT 5SM +RA SCT026 BKN032 OVC050 20/19 A2998 RMK AO2 T01970188
KHRX 210135Z AUTO 32009KT 7SM +RA SCT027 SCT040 OVC060 20/19 A2997 RMK AO2 LTG DSNT E AND SE T01990189
KHRX 210115Z AUTO 33011KT 7SM RA SCT021 BKN043 OVC060 20/19 A2996 RMK AO2 LTG DSNT SE T02000188
KHRX 210055Z AUTO 32012G17KT 4SM RA SCT019 BKN025 OVC042 20/19 A2996 RMK AO2 LTG DSNT SE AND S T02020191
KHRX 210035Z AUTO 30015KT 5SM RA SCT016 BKN029 OVC043 21/19 A2995 RMK AO2 LTG DSNT S AND SW T02050190
KHRX 210015Z AUTO 28021G27KT 7SM -VCTSRA SCT026 BKN042 OVC085 22/18 A2994 RMK AO2 LTG DSNT S THRU N T02230183
KHRX 202355Z AUTO 27023G29KT 10SM SCT060 OVC095 28/15 A2993 RMK AO2 LTG DSNT SW T02780150 10314 20278
KHRX 202335Z AUTO 20013G21KT 10SM SCT060 SCT075 BKN095 28/14 A2989 RMK AO2 LTG DSNT N T02830139
KHRX 202315Z AUTO 19018G21KT 10SM SCT060 BKN075 BKN095 29/13 A2988 RMK AO2 T02850131
KHRX 202255Z AUTO 18017G22KT 10SM SCT060 BKN075 30/13 A2987 RMK AO2 T03000125
KHRX 202235Z AUTO 18013G22KT 10SM SCT060 SCT085 31/12 A2987 RMK AO2 T03050122
KHRX 202215Z AUTO 18019G25KT 10SM SCT060 SCT080 30/12 A2987 RMK AO2 T03040123
KHRX 202155Z AUTO 18016G21KT 10SM SCT060 31/12 A2987 RMK AO2 T03100123
KHRX 202135Z AUTO 19015G24KT 10SM SCT060 SCT075 30/13 A2987 RMK AO2 T03020131
KHRX 202115Z AUTO 19018G26KT 10SM SCT060 BKN075 31/13 A2988 RMK AO2 T03090128
KHRX 202055Z AUTO 19017G27KT 10SM SCT060 30/13 A2989 RMK AO2 T03030134
KHRX 202035Z AUTO 19018G24KT 10SM SCT060 31/13 A2990 RMK AO2 T03050126
KHRX 202015Z AUTO 20016G25KT 10SM SCT060 30/13 A2990 RMK AO2 T03020133
KHRX 201955Z AUTO 19016G22KT 10SM SCT060 30/13 A2991 RMK AO2 T03000133
KHRX 201935Z AUTO 20016G23KT 10SM SCT060 31/13 A2992 RMK AO2 T03080128
KHRX 201915Z AUTO 19017G25KT 10SM CLR 31/13 A2993 RMK AO2 T03050127
KHRX 201855Z AUTO 20016G23KT 10SM CLR 30/13 A2994 RMK AO2 T03020129
KHRX 201835Z AUTO 20015G23KT 10SM CLR 30/14 A2995 RMK AO2 T03020139
KHRX 201815Z AUTO 19016G23KT 10SM CLR 30/15 A2996 RMK AO2 T02980145
KHRX 201755Z AUTO 19018G22KT 10SM CLR 29/15 A2997 RMK AO2 T02860154 10290 20184
KHRX 201735Z AUTO 20016G22KT 10SM CLR 29/15 A2998 RMK AO2 T02850153
KHRX 201715Z AUTO 21016G23KT 10SM CLR 28/16 A2999 RMK AO2 T02780155
KHRX 201655Z AUTO 20014G20KT 10SM CLR 27/17 A2999 RMK AO2 T02680167
KHRX 201635Z AUTO 20017G22KT 10SM CLR 26/17 A2999 RMK AO2 T02610167
KHRX 201615Z AUTO 21016G21KT 10SM CLR 26/17 A3000 RMK AO2 T02550167
KHRX 201555Z AUTO 21017G22KT 10SM CLR 25/17 A2999 RMK AO2 T02490166
KHRX 201535Z AUTO 21016G23KT 10SM CLR 24/17 A2999 RMK AO2 T02390168
KHRX 201515Z AUTO 21018G24KT 10SM CLR 23/17 A3000 RMK AO2 T02290167
KHRX 201455Z AUTO 21017G26KT 10SM CLR 22/17 A2999 RMK AO2 T02190170
KHRX 201435Z AUTO 21018G23KT 10SM CLR 22/17 A2999 RMK AO2 T02150171
KHRX 201415Z AUTO 20015G20KT 10SM CLR 21/17 A2999 RMK AO2 T02050171
KHRX 201355Z AUTO 20013G22KT 10SM CLR 20/17 A2998 RMK AO2 T01970170
KHRX 201335Z AUTO 20012G19KT 10SM CLR 19/17 A2998 RMK AO2 T01910168
KHRX 201315Z AUTO 20012G17KT 7SM CLR 19/17 A2997 RMK AO2 T01860166
KHRX 201255Z AUTO 20013G18KT 10SM CLR 18/17 A2996 RMK AO2 T01840165
KHRX 201235Z AUTO 20013G18KT 10SM CLR 19/17 A2996 RMK AO2 T01850166
KHRX 201215Z AUTO 20013KT 10SM CLR 19/17 A2995 RMK AO2 T01870166
KHRX 201155Z AUTO 20013G18KT 10SM CLR 19/17 A2995 RMK AO2 T01880168 10235 20187
KHRX 201135Z AUTO 20010G15KT 10SM CLR 19/17 A2995 RMK AO2 T01880170
KHRX 201115Z AUTO 20010KT 10SM CLR 19/17 A2995 RMK AO2 T01900171
KHRX 201055Z AUTO 20010G16KT 10SM CLR 19/17 A2995 RMK AO2 T01910173
KHRX 201035Z AUTO 20008KT 10SM CLR 19/17 A2995 RMK AO2 T01920171
KHRX 201015Z AUTO 21007KT 10SM CLR 19/17 A2995 RMK AO2 T01920169
KHRX 200955Z AUTO 23007KT 10SM CLR 19/16 A2995 RMK AO2 T01910163
KHRX 200935Z AUTO 22006KT 10SM CLR 20/16 A2995 RMK AO2 T01950162
KHRX 200915Z AUTO 20006KT 10SM CLR 20/16 A2995 RMK AO2 T01950161
KHRX 200855Z AUTO 20005KT 10SM CLR 20/16 A2995 RMK AO2 T01970160
KHRX 200835Z AUTO 20007KT 10SM CLR 21/16 A2995 RMK AO2 T02050160
KHRX 200815Z AUTO 20009KT 10SM CLR 21/16 A2995 RMK AO2 T02070158
KHRX 200755Z AUTO 20010G14KT 10SM CLR 21/16 A2996 RMK AO2 T02100156
KHRX 200735Z AUTO 21007KT 10SM CLR 21/16 A2996 RMK AO2 T02120155
KHRX 200715Z AUTO 20010KT 10SM CLR 22/16 A2996 RMK AO2 T02180157
KHRX 200655Z AUTO 20011G16KT 10SM CLR 22/16 A2997 RMK AO2 T02220161
KHRX 200635Z AUTO 20013G19KT 10SM CLR 23/17 A2997 RMK AO2 T02270165
KHRX 200615Z AUTO 20013KT 10SM CLR 23/17 A2997 RMK AO2 T02300170
KHRX 200555Z AUTO 20013G18KT 10SM CLR 24/17 A2997 RMK AO2 T02350170 10302 20235 403270191
KHRX 200535Z AUTO 19017KT 10SM CLR 24/17 A2997 RMK AO2 T02390169